sensor_id;sensor_type;location;lat;lon;timestamp;pressure;altitude;pressure_sealevel;temperature;humidity
64460;BME280;50828;53.756;21.140;2023-03-03T00:05:16;100076.52;;;-0.76;70.37
64460;BME280;50828;53.756;21.140;2023-03-03T00:10:25;100068.40;;;-0.72;70.49
64460;BME280;50828;53.756;21.140;2023-03-03T00:15:32;100062.36;;;-0.68;70.42
64460;BME280;50828;53.756;21.140;2023-03-03T00:20:49;100053.55;;;-0.68;70.45
64460;BME280;50828;53.756;21.140;2023-03-03T00:26:00;100052.52;;;-0.67;70.53
64460;BME280;50828;53.756;21.140;2023-03-03T00:31:17;100046.80;;;-0.69;70.55
64460;BME280;50828;53.756;21.140;2023-03-03T00:36:30;100046.77;;;-0.73;70.86
64460;BME280;50828;53.756;21.140;2023-03-03T00:41:43;100052.13;;;-0.76;71.13
64460;BME280;50828;53.756;21.140;2023-03-03T00:46:52;100055.73;;;-0.80;71.34
64460;BME280;50828;53.756;21.140;2023-03-03T00:52:00;100060.77;;;-0.81;71.35
64460;BME280;50828;53.756;21.140;2023-03-03T00:57:08;100060.58;;;-0.80;71.44
64460;BME280;50828;53.756;21.140;2023-03-03T01:02:18;100058.69;;;-0.79;71.58
64460;BME280;50828;53.756;21.140;2023-03-03T01:07:26;100049.16;;;-0.78;71.71
64460;BME280;50828;53.756;21.140;2023-03-03T01:12:35;100037.59;;;-0.77;71.90
64460;BME280;50828;53.756;21.140;2023-03-03T01:17:44;100031.70;;;-0.79;71.88
64460;BME280;50828;53.756;21.140;2023-03-03T01:22:53;100020.11;;;-0.80;71.82
64460;BME280;50828;53.756;21.140;2023-03-03T01:28:01;100010.42;;;-0.82;71.92
64460;BME280;50828;53.756;21.140;2023-03-03T01:33:10;100009.73;;;-0.83;72.02
64460;BME280;50828;53.756;21.140;2023-03-03T01:38:18;100004.00;;;-0.86;72.08
64460;BME280;50828;53.756;21.140;2023-03-03T01:43:27;99998.80;;;-0.88;72.26
64460;BME280;50828;53.756;21.140;2023-03-03T01:48:39;99997.25;;;-0.88;72.29
64460;BME280;50828;53.756;21.140;2023-03-03T01:53:52;99988.42;;;-0.88;72.28
64460;BME280;50828;53.756;21.140;2023-03-03T01:59:02;99986.52;;;-0.88;72.27
64460;BME280;50828;53.756;21.140;2023-03-03T02:04:13;99986.88;;;-0.87;72.19
64460;BME280;50828;53.756;21.140;2023-03-03T02:09:25;99984.80;;;-0.87;72.20
64460;BME280;50828;53.756;21.140;2023-03-03T02:14:36;99980.98;;;-0.87;72.56
64460;BME280;50828;53.756;21.140;2023-03-03T02:19:50;99978.75;;;-0.88;72.43
64460;BME280;50828;53.756;21.140;2023-03-03T02:25:01;99969.06;;;-0.87;72.51
64460;BME280;50828;53.756;21.140;2023-03-03T02:30:15;99968.89;;;-0.87;72.53
64460;BME280;50828;53.756;21.140;2023-03-03T02:35:35;99952.98;;;-0.88;72.54
64460;BME280;50828;53.756;21.140;2023-03-03T02:40:51;99955.41;;;-0.87;72.66
64460;BME280;50828;53.756;21.140;2023-03-03T02:46:03;99952.65;;;-0.86;72.74
64460;BME280;50828;53.756;21.140;2023-03-03T02:51:12;99944.86;;;-0.87;72.69
64460;BME280;50828;53.756;21.140;2023-03-03T02:56:21;99946.60;;;-0.85;72.62
64460;BME280;50828;53.756;21.140;2023-03-03T03:01:30;99939.16;;;-0.82;72.64
64460;BME280;50828;53.756;21.140;2023-03-03T03:06:45;99932.09;;;-0.81;72.72
64460;BME280;50828;53.756;21.140;2023-03-03T03:11:54;99924.64;;;-0.79;72.88
64460;BME280;50828;53.756;21.140;2023-03-03T03:17:04;99917.40;;;-0.78;72.90
64460;BME280;50828;53.756;21.140;2023-03-03T03:22:13;99915.67;;;-0.78;73.24
64460;BME280;50828;53.756;21.140;2023-03-03T03:27:22;99891.27;;;-0.77;73.00
64460;BME280;50828;53.756;21.140;2023-03-03T03:32:31;99876.25;;;-0.74;72.99
64460;BME280;50828;53.756;21.140;2023-03-03T03:37:39;99867.26;;;-0.74;72.95
64460;BME280;50828;53.756;21.140;2023-03-03T03:42:48;99876.24;;;-0.77;72.69
64460;BME280;50828;53.756;21.140;2023-03-03T03:47:57;99873.64;;;-0.81;72.70
64460;BME280;50828;53.756;21.140;2023-03-03T03:53:06;99870.34;;;-0.87;72.78
64460;BME280;50828;53.756;21.140;2023-03-03T03:58:15;99868.95;;;-0.93;72.62
64460;BME280;50828;53.756;21.140;2023-03-03T04:03:29;99862.52;;;-0.97;72.76
64460;BME280;50828;53.756;21.140;2023-03-03T04:08:38;99867.02;;;-1.03;72.79
64460;BME280;50828;53.756;21.140;2023-03-03T04:13:47;99865.78;;;-1.06;72.74
64460;BME280;50828;53.756;21.140;2023-03-03T04:18:55;99856.10;;;-1.11;72.74
64460;BME280;50828;53.756;21.140;2023-03-03T04:24:05;99854.54;;;-1.13;72.76
64460;BME280;50828;53.756;21.140;2023-03-03T04:29:16;99868.70;;;-1.16;72.74
64460;BME280;50828;53.756;21.140;2023-03-03T04:34:24;99875.95;;;-1.19;73.17
64460;BME280;50828;53.756;21.140;2023-03-03T04:39:33;99887.01;;;-1.20;73.04
64460;BME280;50828;53.756;21.140;2023-03-03T04:44:41;99875.61;;;-1.19;73.31
64460;BME280;50828;53.756;21.140;2023-03-03T04:49:50;99874.23;;;-1.17;73.62
64460;BME280;50828;53.756;21.140;2023-03-03T04:54:59;99861.10;;;-1.14;73.76
64460;BME280;50828;53.756;21.140;2023-03-03T05:00:09;99861.12;;;-1.10;73.96
64460;BME280;50828;53.756;21.140;2023-03-03T05:05:18;99865.44;;;-1.06;74.18
64460;BME280;50828;53.756;21.140;2023-03-03T05:10:26;99857.17;;;-1.02;74.32
64460;BME280;50828;53.756;21.140;2023-03-03T05:15:34;99852.51;;;-0.99;74.42
64460;BME280;50828;53.756;21.140;2023-03-03T05:20:44;99858.06;;;-0.93;74.57
64460;BME280;50828;53.756;21.140;2023-03-03T05:25:52;99851.48;;;-0.88;74.75
64460;BME280;50828;53.756;21.140;2023-03-03T05:30:59;99845.96;;;-0.84;74.78
64460;BME280;50828;53.756;21.140;2023-03-03T05:36:08;99856.88;;;-0.78;74.86
64460;BME280;50828;53.756;21.140;2023-03-03T05:41:17;99854.45;;;-0.75;74.88
64460;BME280;50828;53.756;21.140;2023-03-03T05:46:26;99850.84;;;-0.71;75.08
64460;BME280;50828;53.756;21.140;2023-03-03T05:51:34;99857.76;;;-0.65;75.13
64460;BME280;50828;53.756;21.140;2023-03-03T05:56:43;99851.88;;;-0.60;75.09
64460;BME280;50828;53.756;21.140;2023-03-03T06:01:52;99847.20;;;-0.58;75.15
64460;BME280;50828;53.756;21.140;2023-03-03T06:07:01;99857.77;;;-0.53;75.16
64460;BME280;50828;53.756;21.140;2023-03-03T06:12:10;99852.75;;;-0.50;75.12
64460;BME280;50828;53.756;21.140;2023-03-03T06:17:19;99849.47;;;-0.46;75.06
64460;BME280;50828;53.756;21.140;2023-03-03T06:22:27;99843.76;;;-0.42;75.23
64460;BME280;50828;53.756;21.140;2023-03-03T06:27:36;99847.04;;;-0.39;75.12
64460;BME280;50828;53.756;21.140;2023-03-03T06:32:44;99849.30;;;-0.37;75.35
64460;BME280;50828;53.756;21.140;2023-03-03T06:37:52;99843.94;;;-0.36;75.04
64460;BME280;50828;53.756;21.140;2023-03-03T06:43:00;99863.66;;;-0.34;75.08
64460;BME280;50828;53.756;21.140;2023-03-03T06:48:09;99872.48;;;-0.32;75.21
64460;BME280;50828;53.756;21.140;2023-03-03T06:53:19;99875.61;;;-0.30;75.37
64460;BME280;50828;53.756;21.140;2023-03-03T06:58:28;99880.97;;;-0.26;75.45
64460;BME280;50828;53.756;21.140;2023-03-03T07:03:48;99884.09;;;-0.22;75.48
64460;BME280;50828;53.756;21.140;2023-03-03T07:08:58;99882.00;;;-0.18;75.57
64460;BME280;50828;53.756;21.140;2023-03-03T07:14:15;99890.49;;;-0.11;75.68
64460;BME280;50828;53.756;21.140;2023-03-03T07:19:28;99892.39;;;-0.06;75.59
64460;BME280;50828;53.756;21.140;2023-03-03T07:24:38;99890.14;;;-0.00;75.66
64460;BME280;50828;53.756;21.140;2023-03-03T07:29:48;99886.85;;;0.06;75.75
64460;BME280;50828;53.756;21.140;2023-03-03T07:34:57;99889.61;;;0.12;75.68
64460;BME280;50828;53.756;21.140;2023-03-03T07:45:36;99892.02;;;0.24;75.70
64460;BME280;50828;53.756;21.140;2023-03-03T07:50:45;99890.77;;;0.29;75.84
64460;BME280;50828;53.756;21.140;2023-03-03T07:55:55;99894.24;;;0.36;75.67
64460;BME280;50828;53.756;21.140;2023-03-03T08:06:55;99869.11;;;0.44;75.76
64460;BME280;50828;53.756;21.140;2023-03-03T08:12:21;99864.58;;;0.47;75.74
64460;BME280;50828;53.756;21.140;2023-03-03T08:17:36;99871.69;;;0.51;75.69
64460;BME280;50828;53.756;21.140;2023-03-03T08:22:46;99875.13;;;0.55;75.64
64460;BME280;50828;53.756;21.140;2023-03-03T08:27:54;99866.11;;;0.59;75.59
64460;BME280;50828;53.756;21.140;2023-03-03T08:33:02;99858.99;;;0.62;75.58
64460;BME280;50828;53.756;21.140;2023-03-03T08:38:12;99860.70;;;0.64;75.65
64460;BME280;50828;53.756;21.140;2023-03-03T08:43:22;99856.19;;;0.70;75.65
64460;BME280;50828;53.756;21.140;2023-03-03T08:48:31;99859.98;;;0.76;75.63
64460;BME280;50828;53.756;21.140;2023-03-03T08:53:39;99858.90;;;0.82;75.63
64460;BME280;50828;53.756;21.140;2023-03-03T08:58:47;99859.58;;;0.88;75.45
64460;BME280;50828;53.756;21.140;2023-03-03T09:04:06;99857.29;;;0.94;75.51
64460;BME280;50828;53.756;21.140;2023-03-03T09:09:14;99859.17;;;0.99;75.55
64460;BME280;50828;53.756;21.140;2023-03-03T09:14:28;99864.00;;;1.06;75.37
64460;BME280;50828;53.756;21.140;2023-03-03T09:19:38;99865.52;;;1.11;75.40
64460;BME280;50828;53.756;21.140;2023-03-03T09:24:47;99870.69;;;1.18;75.44
64460;BME280;50828;53.756;21.140;2023-03-03T09:30:02;99870.14;;;1.23;75.27
64460;BME280;50828;53.756;21.140;2023-03-03T09:35:37;99863.84;;;1.30;75.25
64460;BME280;50828;53.756;21.140;2023-03-03T09:40:55;99850.97;;;1.37;75.37
64460;BME280;50828;53.756;21.140;2023-03-03T09:46:14;99848.98;;;1.47;75.07
64460;BME280;50828;53.756;21.140;2023-03-03T09:51:45;99843.00;;;1.56;75.12
64460;BME280;50828;53.756;21.140;2023-03-03T09:57:04;99842.73;;;1.68;74.96
64460;BME280;50828;53.756;21.140;2023-03-03T10:02:34;99849.09;;;1.76;74.92
64460;BME280;50828;53.756;21.140;2023-03-03T10:07:52;99856.48;;;1.88;74.68
64460;BME280;50828;53.756;21.140;2023-03-03T10:13:13;99858.47;;;1.97;74.36
64460;BME280;50828;53.756;21.140;2023-03-03T10:18:31;99864.80;;;2.06;74.10
64460;BME280;50828;53.756;21.140;2023-03-03T10:23:54;99874.29;;;2.15;73.84
64460;BME280;50828;53.756;21.140;2023-03-03T10:29:11;99873.38;;;2.19;73.38
64460;BME280;50828;53.756;21.140;2023-03-03T10:34:47;99871.79;;;2.23;73.09
64460;BME280;50828;53.756;21.140;2023-03-03T10:40:10;99869.36;;;2.22;73.00
64460;BME280;50828;53.756;21.140;2023-03-03T10:51:02;99863.78;;;2.23;72.61
64460;BME280;50828;53.756;21.140;2023-03-03T10:56:24;99857.17;;;2.24;72.61
64460;BME280;50828;53.756;21.140;2023-03-03T11:01:51;99848.11;;;2.26;72.58
64460;BME280;50828;53.756;21.140;2023-03-03T11:07:05;99849.63;;;2.30;72.47
64460;BME280;50828;53.756;21.140;2023-03-03T11:12:25;99847.68;;;2.33;72.45
64460;BME280;50828;53.756;21.140;2023-03-03T11:17:46;99846.44;;;2.36;72.22
64460;BME280;50828;53.756;21.140;2023-03-03T11:23:04;99845.03;;;2.36;72.05
64460;BME280;50828;53.756;21.140;2023-03-03T11:28:28;99841.72;;;2.37;72.01
64460;BME280;50828;53.756;21.140;2023-03-03T11:33:42;99832.87;;;2.37;71.92
64460;BME280;50828;53.756;21.140;2023-03-03T11:38:59;99838.07;;;2.38;71.93
64460;BME280;50828;53.756;21.140;2023-03-03T11:44:19;99831.09;;;2.41;71.78
64460;BME280;50828;53.756;21.140;2023-03-03T11:49:34;99822.55;;;2.43;71.72
64460;BME280;50828;53.756;21.140;2023-03-03T11:54:50;99818.49;;;2.47;72.09
64460;BME280;50828;53.756;21.140;2023-03-03T12:00:19;99815.85;;;2.50;71.75
64460;BME280;50828;53.756;21.140;2023-03-03T12:05:44;99808.16;;;2.54;71.86
64460;BME280;50828;53.756;21.140;2023-03-03T12:11:00;99803.70;;;2.63;72.12
64460;BME280;50828;53.756;21.140;2023-03-03T12:16:14;99802.38;;;2.70;71.57
64460;BME280;50828;53.756;21.140;2023-03-03T12:21:38;99800.55;;;2.78;71.58
64460;BME280;50828;53.756;21.140;2023-03-03T12:26:57;99796.43;;;2.87;71.73
64460;BME280;50828;53.756;21.140;2023-03-03T12:32:19;99794.38;;;2.97;71.66
64460;BME280;50828;53.756;21.140;2023-03-03T12:37:47;99793.03;;;3.06;71.11
64460;BME280;50828;53.756;21.140;2023-03-03T12:43:19;99789.99;;;3.11;71.11
64460;BME280;50828;53.756;21.140;2023-03-03T12:48:37;99777.23;;;3.16;70.90
64460;BME280;50828;53.756;21.140;2023-03-03T12:53:57;99766.67;;;3.23;71.06
64460;BME280;50828;53.756;21.140;2023-03-03T12:59:13;99765.83;;;3.32;71.05
64460;BME280;50828;53.756;21.140;2023-03-03T13:04:34;99764.09;;;3.42;70.95
64460;BME280;50828;53.756;21.140;2023-03-03T13:09:54;99755.05;;;3.53;70.81
64460;BME280;50828;53.756;21.140;2023-03-03T13:15:14;99745.41;;;3.66;70.68
64460;BME280;50828;53.756;21.140;2023-03-03T13:20:38;99739.80;;;3.87;70.66
64460;BME280;50828;53.756;21.140;2023-03-03T13:25:54;99733.72;;;4.04;70.42
64460;BME280;50828;53.756;21.140;2023-03-03T13:31:11;99723.77;;;4.22;70.04
64460;BME280;50828;53.756;21.140;2023-03-03T13:36:24;99718.19;;;4.40;69.57
64460;BME280;50828;53.756;21.140;2023-03-03T13:41:37;99720.12;;;4.55;68.91
64460;BME280;50828;53.756;21.140;2023-03-03T13:47:01;99721.56;;;4.69;68.62
64460;BME280;50828;53.756;21.140;2023-03-03T13:52:12;99716.36;;;4.83;67.94
64460;BME280;50828;53.756;21.140;2023-03-03T13:57:40;99715.38;;;4.95;67.60
64460;BME280;50828;53.756;21.140;2023-03-03T14:08:45;99702.45;;;5.11;65.94
64460;BME280;50828;53.756;21.140;2023-03-03T14:14:03;99695.61;;;5.19;65.77
64460;BME280;50828;53.756;21.140;2023-03-03T14:19:20;99690.73;;;5.26;65.07
64460;BME280;50828;53.756;21.140;2023-03-03T14:24:32;99681.84;;;5.32;64.95
64460;BME280;50828;53.756;21.140;2023-03-03T14:35:31;99667.48;;;5.48;64.07
64460;BME280;50828;53.756;21.140;2023-03-03T14:40:41;99663.45;;;5.54;64.06
64460;BME280;50828;53.756;21.140;2023-03-03T14:45:51;99659.65;;;5.60;63.66
64460;BME280;50828;53.756;21.140;2023-03-03T14:51:22;99650.67;;;5.62;63.33
64460;BME280;50828;53.756;21.140;2023-03-03T14:56:34;99641.45;;;5.60;62.42
64460;BME280;50828;53.756;21.140;2023-03-03T15:01:45;99640.48;;;5.58;62.04
64460;BME280;50828;53.756;21.140;2023-03-03T15:06:55;99637.59;;;5.55;61.71
64460;BME280;50828;53.756;21.140;2023-03-03T15:12:19;99633.49;;;5.52;61.31
64460;BME280;50828;53.756;21.140;2023-03-03T15:17:35;99630.25;;;5.49;61.06
64460;BME280;50828;53.756;21.140;2023-03-03T15:22:47;99610.28;;;5.38;60.62
64460;BME280;50828;53.756;21.140;2023-03-03T15:28:08;99618.70;;;5.42;60.52
64460;BME280;50828;53.756;21.140;2023-03-03T15:33:27;99604.83;;;5.33;60.31
64460;BME280;50828;53.756;21.140;2023-03-03T15:38:44;99609.13;;;5.35;59.88
64460;BME280;50828;53.756;21.140;2023-03-03T15:44:04;99603.62;;;5.32;60.13
64460;BME280;50828;53.756;21.140;2023-03-03T15:49:32;99605.06;;;5.30;60.54
64460;BME280;50828;53.756;21.140;2023-03-03T15:54:58;99598.52;;;5.27;60.68
64460;BME280;50828;53.756;21.140;2023-03-03T16:00:47;99600.16;;;5.24;60.88
64460;BME280;50828;53.756;21.140;2023-03-03T16:06:04;99596.87;;;5.17;61.13
64460;BME280;50828;53.756;21.140;2023-03-03T16:11:20;99598.10;;;5.02;61.34
64460;BME280;50828;53.756;21.140;2023-03-03T16:16:44;99587.22;;;4.85;61.70
64460;BME280;50828;53.756;21.140;2023-03-03T16:27:31;99577.67;;;4.47;62.12
64460;BME280;50828;53.756;21.140;2023-03-03T16:32:47;99571.16;;;4.27;62.41
64460;BME280;50828;53.756;21.140;2023-03-03T16:38:01;99564.92;;;4.09;62.73
64460;BME280;50828;53.756;21.140;2023-03-03T16:43:19;99568.45;;;3.92;62.86
64460;BME280;50828;53.756;21.140;2023-03-03T16:48:39;99574.94;;;3.73;63.45
64460;BME280;50828;53.756;21.140;2023-03-03T16:53:59;99575.29;;;3.56;63.76
64460;BME280;50828;53.756;21.140;2023-03-03T16:59:27;99573.33;;;3.41;64.06
64460;BME280;50828;53.756;21.140;2023-03-03T17:04:44;99567.85;;;3.27;64.42
64460;BME280;50828;53.756;21.140;2023-03-03T17:10:07;99561.47;;;3.15;64.40
64460;BME280;50828;53.756;21.140;2023-03-03T17:15:31;99556.32;;;3.02;65.01
64460;BME280;50828;53.756;21.140;2023-03-03T17:20:48;99558.41;;;2.91;65.21
64460;BME280;50828;53.756;21.140;2023-03-03T17:26:03;99548.50;;;2.81;65.73
64460;BME280;50828;53.756;21.140;2023-03-03T17:31:22;99542.27;;;2.70;65.82
64460;BME280;50828;53.756;21.140;2023-03-03T17:36:43;99539.27;;;2.62;66.23
64460;BME280;50828;53.756;21.140;2023-03-03T17:41:56;99539.05;;;2.54;66.76
64460;BME280;50828;53.756;21.140;2023-03-03T17:47:22;99543.13;;;2.49;67.02
64460;BME280;50828;53.756;21.140;2023-03-03T17:52:58;99538.87;;;2.44;67.36
64460;BME280;50828;53.756;21.140;2023-03-03T17:58:32;99535.61;;;2.42;67.36
64460;BME280;50828;53.756;21.140;2023-03-03T18:04:16;99536.35;;;2.38;67.49
64460;BME280;50828;53.756;21.140;2023-03-03T18:09:45;99529.79;;;2.36;67.77
64460;BME280;50828;53.756;21.140;2023-03-03T18:15:19;99520.45;;;2.33;67.91
64460;BME280;50828;53.756;21.140;2023-03-03T18:20:55;99512.73;;;2.27;68.00
64460;BME280;50828;53.756;21.140;2023-03-03T18:26:31;99521.30;;;2.25;68.14
64460;BME280;50828;53.756;21.140;2023-03-03T18:31:49;99514.41;;;2.19;68.16
64460;BME280;50828;53.756;21.140;2023-03-03T18:37:33;99516.23;;;2.14;68.11
64460;BME280;50828;53.756;21.140;2023-03-03T18:42:43;99522.77;;;2.08;68.15
64460;BME280;50828;53.756;21.140;2023-03-03T18:48:16;99524.06;;;2.02;68.33
64460;BME280;50828;53.756;21.140;2023-03-03T18:53:28;99526.05;;;1.95;68.30
64460;BME280;50828;53.756;21.140;2023-03-03T18:58:39;99525.77;;;1.91;68.38
64460;BME280;50828;53.756;21.140;2023-03-03T19:04:14;99531.21;;;1.87;68.54
64460;BME280;50828;53.756;21.140;2023-03-03T19:09:46;99520.49;;;1.83;68.80
64460;BME280;50828;53.756;21.140;2023-03-03T19:14:58;99511.70;;;1.80;68.68
64460;BME280;50828;53.756;21.140;2023-03-03T19:20:10;99502.02;;;1.76;68.77
64460;BME280;50828;53.756;21.140;2023-03-03T19:25:23;99500.17;;;1.73;68.85
64460;BME280;50828;53.756;21.140;2023-03-03T19:30:57;99492.04;;;1.71;69.01
64460;BME280;50828;53.756;21.140;2023-03-03T19:36:35;99483.21;;;1.68;68.97
64460;BME280;50828;53.756;21.140;2023-03-03T19:41:57;99466.77;;;1.66;69.20
64460;BME280;50828;53.756;21.140;2023-03-03T19:47:22;99458.60;;;1.63;68.96
64460;BME280;50828;53.756;21.140;2023-03-03T19:52:37;99446.86;;;1.61;69.22
64460;BME280;50828;53.756;21.140;2023-03-03T19:58:00;99432.65;;;1.59;69.19
64460;BME280;50828;53.756;21.140;2023-03-03T20:03:36;99430.80;;;1.55;69.16
64460;BME280;50828;53.756;21.140;2023-03-03T20:08:56;99421.48;;;1.51;69.47
64460;BME280;50828;53.756;21.140;2023-03-03T20:14:16;99414.73;;;1.50;69.27
64460;BME280;50828;53.756;21.140;2023-03-03T20:19:42;99414.77;;;1.47;69.42
64460;BME280;50828;53.756;21.140;2023-03-03T20:25:03;99406.12;;;1.46;69.60
64460;BME280;50828;53.756;21.140;2023-03-03T20:30:26;99394.19;;;1.43;69.71
64460;BME280;50828;53.756;21.140;2023-03-03T20:35:45;99384.83;;;1.42;69.51
64460;BME280;50828;53.756;21.140;2023-03-03T20:41:06;99378.06;;;1.41;69.77
64460;BME280;50828;53.756;21.140;2023-03-03T20:46:24;99365.05;;;1.42;69.94
64460;BME280;50828;53.756;21.140;2023-03-03T20:51:42;99341.84;;;1.39;70.09
64460;BME280;50828;53.756;21.140;2023-03-03T20:56:55;99336.61;;;1.40;69.85
64460;BME280;50828;53.756;21.140;2023-03-03T21:02:16;99333.16;;;1.39;70.20
64460;BME280;50828;53.756;21.140;2023-03-03T21:07:28;99325.01;;;1.39;69.87
64460;BME280;50828;53.756;21.140;2023-03-03T21:12:36;99319.48;;;1.37;69.84
64460;BME280;50828;53.756;21.140;2023-03-03T21:17:45;99309.94;;;1.37;70.09
64460;BME280;50828;53.756;21.140;2023-03-03T21:22:55;99296.06;;;1.38;69.89
64460;BME280;50828;53.756;21.140;2023-03-03T21:28:18;99283.75;;;1.37;69.79
64460;BME280;50828;53.756;21.140;2023-03-03T21:33:44;99271.80;;;1.36;69.75
64460;BME280;50828;53.756;21.140;2023-03-03T21:38:54;99271.50;;;1.33;69.77
64460;BME280;50828;53.756;21.140;2023-03-03T21:49:54;99249.54;;;1.28;69.87
64460;BME280;50828;53.756;21.140;2023-03-03T21:55:03;99246.63;;;1.26;69.88
64460;BME280;50828;53.756;21.140;2023-03-03T22:00:13;99247.02;;;1.23;69.89
64460;BME280;50828;53.756;21.140;2023-03-03T22:05:21;99240.48;;;1.20;69.81
64460;BME280;50828;53.756;21.140;2023-03-03T22:10:31;99236.55;;;1.16;69.68
64460;BME280;50828;53.756;21.140;2023-03-03T22:15:39;99228.13;;;1.12;69.67
64460;BME280;50828;53.756;21.140;2023-03-03T22:20:47;99222.80;;;1.08;69.74
64460;BME280;50828;53.756;21.140;2023-03-03T22:25:56;99216.09;;;1.05;70.02
64460;BME280;50828;53.756;21.140;2023-03-03T22:31:05;99208.16;;;1.03;70.16
64460;BME280;50828;53.756;21.140;2023-03-03T22:36:14;99209.09;;;0.98;70.06
64460;BME280;50828;53.756;21.140;2023-03-03T22:41:24;99192.28;;;0.98;70.06
64460;BME280;50828;53.756;21.140;2023-03-03T22:46:33;99177.05;;;0.96;70.27
64460;BME280;50828;53.756;21.140;2023-03-03T22:51:41;99171.00;;;0.94;70.24
64460;BME280;50828;53.756;21.140;2023-03-03T22:56:48;99157.14;;;0.94;70.22
64460;BME280;50828;53.756;21.140;2023-03-03T23:01:56;99150.55;;;0.94;70.26
64460;BME280;50828;53.756;21.140;2023-03-03T23:07:05;99146.98;;;0.89;70.39
64460;BME280;50828;53.756;21.140;2023-03-03T23:12:14;99147.19;;;0.88;70.51
64460;BME280;50828;53.756;21.140;2023-03-03T23:17:22;99141.81;;;0.88;70.68
64460;BME280;50828;53.756;21.140;2023-03-03T23:22:30;99127.91;;;0.90;70.51
64460;BME280;50828;53.756;21.140;2023-03-03T23:27:38;99115.20;;;0.93;70.48
64460;BME280;50828;53.756;21.140;2023-03-03T23:32:47;99115.19;;;0.93;70.62
64460;BME280;50828;53.756;21.140;2023-03-03T23:37:55;99112.04;;;0.96;70.65
64460;BME280;50828;53.756;21.140;2023-03-03T23:43:04;99105.58;;;0.98;70.64
64460;BME280;50828;53.756;21.140;2023-03-03T23:48:11;99108.00;;;0.99;70.41
64460;BME280;50828;53.756;21.140;2023-03-03T23:53:20;99092.14;;;0.93;70.63
64460;BME280;50828;53.756;21.140;2023-03-03T23:58:27;99094.77;;;1.02;70.46
